sensor_id;sensor_type;location;lat;lon;timestamp;P1;durP1;ratioP1;P2;durP2;ratioP2
66179;SDS011;52986;44.028;20.466;2023-06-26T00:00:29;18.67;;;10.43;;
66179;SDS011;52986;44.028;20.466;2023-06-26T00:02:55;18.52;;;9.75;;
66179;SDS011;52986;44.028;20.466;2023-06-26T00:05:20;19.60;;;10.02;;
66179;SDS011;52986;44.028;20.466;2023-06-26T00:07:45;20.05;;;10.35;;
66179;SDS011;52986;44.028;20.466;2023-06-26T00:10:11;19.55;;;9.80;;
66179;SDS011;52986;44.028;20.466;2023-06-26T00:12:36;19.70;;;9.85;;
66179;SDS011;52986;44.028;20.466;2023-06-26T00:15:02;19.48;;;10.05;;
66179;SDS011;52986;44.028;20.466;2023-06-26T00:17:27;17.77;;;9.60;;
66179;SDS011;52986;44.028;20.466;2023-06-26T00:19:53;19.85;;;10.48;;
66179;SDS011;52986;44.028;20.466;2023-06-26T00:22:18;19.83;;;10.35;;
66179;SDS011;52986;44.028;20.466;2023-06-26T00:24:44;21.02;;;10.52;;
66179;SDS011;52986;44.028;20.466;2023-06-26T00:27:10;22.33;;;11.15;;
66179;SDS011;52986;44.028;20.466;2023-06-26T00:29:35;23.52;;;10.93;;
66179;SDS011;52986;44.028;20.466;2023-06-26T00:32:00;19.87;;;10.40;;
66179;SDS011;52986;44.028;20.466;2023-06-26T00:34:26;22.02;;;11.18;;
66179;SDS011;52986;44.028;20.466;2023-06-26T00:36:51;19.73;;;10.68;;
66179;SDS011;52986;44.028;20.466;2023-06-26T00:39:17;19.70;;;11.27;;
66179;SDS011;52986;44.028;20.466;2023-06-26T00:41:42;21.77;;;10.82;;
66179;SDS011;52986;44.028;20.466;2023-06-26T00:44:08;21.20;;;10.95;;
66179;SDS011;52986;44.028;20.466;2023-06-26T00:46:33;18.42;;;11.05;;
66179;SDS011;52986;44.028;20.466;2023-06-26T00:49:00;18.75;;;10.25;;
66179;SDS011;52986;44.028;20.466;2023-06-26T00:51:29;20.70;;;11.85;;
66179;SDS011;52986;44.028;20.466;2023-06-26T00:53:56;19.98;;;11.70;;
66179;SDS011;52986;44.028;20.466;2023-06-26T00:56:22;20.20;;;10.90;;
66179;SDS011;52986;44.028;20.466;2023-06-26T00:58:48;20.98;;;10.95;;
66179;SDS011;52986;44.028;20.466;2023-06-26T01:01:14;21.77;;;11.38;;
66179;SDS011;52986;44.028;20.466;2023-06-26T01:03:42;19.58;;;10.52;;
66179;SDS011;52986;44.028;20.466;2023-06-26T01:06:09;19.10;;;10.57;;
66179;SDS011;52986;44.028;20.466;2023-06-26T01:08:36;19.77;;;11.00;;
66179;SDS011;52986;44.028;20.466;2023-06-26T01:11:03;18.90;;;10.43;;
66179;SDS011;52986;44.028;20.466;2023-06-26T01:13:29;19.13;;;10.68;;
66179;SDS011;52986;44.028;20.466;2023-06-26T01:15:55;18.73;;;10.40;;
66179;SDS011;52986;44.028;20.466;2023-06-26T01:18:21;18.85;;;9.77;;
66179;SDS011;52986;44.028;20.466;2023-06-26T01:20:47;19.10;;;10.48;;
66179;SDS011;52986;44.028;20.466;2023-06-26T01:23:24;17.75;;;10.23;;
66179;SDS011;52986;44.028;20.466;2023-06-26T01:25:56;18.45;;;10.23;;
66179;SDS011;52986;44.028;20.466;2023-06-26T01:28:24;17.58;;;9.65;;
66179;SDS011;52986;44.028;20.466;2023-06-26T01:30:51;18.85;;;9.70;;
66179;SDS011;52986;44.028;20.466;2023-06-26T01:33:16;18.00;;;9.70;;
66179;SDS011;52986;44.028;20.466;2023-06-26T01:35:42;18.85;;;9.82;;
66179;SDS011;52986;44.028;20.466;2023-06-26T01:38:11;17.25;;;9.25;;
66179;SDS011;52986;44.028;20.466;2023-06-26T01:40:45;17.33;;;9.43;;
66179;SDS011;52986;44.028;20.466;2023-06-26T01:46:09;18.33;;;10.10;;
66179;SDS011;52986;44.028;20.466;2023-06-26T01:49:20;17.45;;;9.40;;
66179;SDS011;52986;44.028;20.466;2023-06-26T01:57:31;15.82;;;8.85;;
66179;SDS011;52986;44.028;20.466;2023-06-26T01:59:57;17.90;;;9.77;;
66179;SDS011;52986;44.028;20.466;2023-06-26T02:02:24;17.02;;;9.60;;
66179;SDS011;52986;44.028;20.466;2023-06-26T02:04:50;17.13;;;9.27;;
66179;SDS011;52986;44.028;20.466;2023-06-26T02:07:16;16.88;;;9.32;;
66179;SDS011;52986;44.028;20.466;2023-06-26T02:09:42;18.33;;;9.90;;
66179;SDS011;52986;44.028;20.466;2023-06-26T02:12:08;18.55;;;9.75;;
66179;SDS011;52986;44.028;20.466;2023-06-26T02:14:34;16.42;;;9.45;;
66179;SDS011;52986;44.028;20.466;2023-06-26T02:16:59;17.63;;;9.80;;
66179;SDS011;52986;44.028;20.466;2023-06-26T02:19:25;20.42;;;10.60;;
66179;SDS011;52986;44.028;20.466;2023-06-26T02:21:52;18.73;;;10.43;;
66179;SDS011;52986;44.028;20.466;2023-06-26T02:24:18;18.95;;;9.68;;
66179;SDS011;52986;44.028;20.466;2023-06-26T02:26:44;18.52;;;10.23;;
66179;SDS011;52986;44.028;20.466;2023-06-26T02:29:09;17.40;;;9.90;;
66179;SDS011;52986;44.028;20.466;2023-06-26T02:31:34;17.58;;;9.82;;
66179;SDS011;52986;44.028;20.466;2023-06-26T02:34:00;17.38;;;9.65;;
66179;SDS011;52986;44.028;20.466;2023-06-26T02:36:25;18.73;;;9.82;;
66179;SDS011;52986;44.028;20.466;2023-06-26T02:38:50;19.90;;;10.07;;
66179;SDS011;52986;44.028;20.466;2023-06-26T02:41:16;16.83;;;9.45;;
66179;SDS011;52986;44.028;20.466;2023-06-26T02:43:41;17.38;;;9.18;;
66179;SDS011;52986;44.028;20.466;2023-06-26T02:46:06;17.00;;;9.77;;
66179;SDS011;52986;44.028;20.466;2023-06-26T02:48:32;19.25;;;9.43;;
66179;SDS011;52986;44.028;20.466;2023-06-26T02:50:57;18.20;;;9.73;;
66179;SDS011;52986;44.028;20.466;2023-06-26T02:53:23;17.35;;;9.75;;
66179;SDS011;52986;44.028;20.466;2023-06-26T02:55:49;18.65;;;10.02;;
66179;SDS011;52986;44.028;20.466;2023-06-26T02:58:15;18.08;;;9.70;;
66179;SDS011;52986;44.028;20.466;2023-06-26T03:00:40;18.75;;;9.68;;
66179;SDS011;52986;44.028;20.466;2023-06-26T03:03:06;17.33;;;9.55;;
66179;SDS011;52986;44.028;20.466;2023-06-26T03:05:32;19.17;;;9.85;;
66179;SDS011;52986;44.028;20.466;2023-06-26T03:07:58;17.92;;;9.95;;
66179;SDS011;52986;44.028;20.466;2023-06-26T03:10:23;17.80;;;9.57;;
66179;SDS011;52986;44.028;20.466;2023-06-26T03:12:49;18.83;;;10.75;;
66179;SDS011;52986;44.028;20.466;2023-06-26T03:15:14;18.27;;;9.57;;
66179;SDS011;52986;44.028;20.466;2023-06-26T03:17:39;17.52;;;9.55;;
66179;SDS011;52986;44.028;20.466;2023-06-26T03:20:05;18.13;;;10.38;;
66179;SDS011;52986;44.028;20.466;2023-06-26T03:22:32;18.95;;;10.48;;
66179;SDS011;52986;44.028;20.466;2023-06-26T03:24:58;20.52;;;10.07;;
66179;SDS011;52986;44.028;20.466;2023-06-26T03:27:24;20.27;;;10.63;;
66179;SDS011;52986;44.028;20.466;2023-06-26T03:29:49;17.75;;;10.35;;
66179;SDS011;52986;44.028;20.466;2023-06-26T03:32:15;20.52;;;10.95;;
66179;SDS011;52986;44.028;20.466;2023-06-26T03:34:41;20.52;;;10.90;;
66179;SDS011;52986;44.028;20.466;2023-06-26T03:37:07;19.40;;;10.48;;
66179;SDS011;52986;44.028;20.466;2023-06-26T03:39:32;19.02;;;10.60;;
66179;SDS011;52986;44.028;20.466;2023-06-26T03:41:58;21.08;;;11.02;;
66179;SDS011;52986;44.028;20.466;2023-06-26T03:44:25;21.30;;;10.93;;
66179;SDS011;52986;44.028;20.466;2023-06-26T03:46:51;19.70;;;10.43;;
66179;SDS011;52986;44.028;20.466;2023-06-26T03:49:17;20.30;;;10.20;;
66179;SDS011;52986;44.028;20.466;2023-06-26T03:51:43;23.35;;;10.55;;
66179;SDS011;52986;44.028;20.466;2023-06-26T03:54:08;18.85;;;10.65;;
66179;SDS011;52986;44.028;20.466;2023-06-26T03:56:34;20.75;;;11.20;;
66179;SDS011;52986;44.028;20.466;2023-06-26T03:58:59;18.90;;;10.82;;
66179;SDS011;52986;44.028;20.466;2023-06-26T04:01:25;20.27;;;10.15;;
66179;SDS011;52986;44.028;20.466;2023-06-26T04:03:50;18.35;;;10.35;;
66179;SDS011;52986;44.028;20.466;2023-06-26T04:06:16;20.42;;;10.65;;
66179;SDS011;52986;44.028;20.466;2023-06-26T04:08:41;18.38;;;10.48;;
66179;SDS011;52986;44.028;20.466;2023-06-26T04:11:07;21.55;;;10.00;;
66179;SDS011;52986;44.028;20.466;2023-06-26T04:13:32;18.02;;;9.60;;
66179;SDS011;52986;44.028;20.466;2023-06-26T04:15:57;18.08;;;9.85;;
66179;SDS011;52986;44.028;20.466;2023-06-26T04:18:23;18.40;;;9.82;;
66179;SDS011;52986;44.028;20.466;2023-06-26T04:23:50;17.05;;;9.40;;
66179;SDS011;52986;44.028;20.466;2023-06-26T04:26:16;18.70;;;10.20;;
66179;SDS011;52986;44.028;20.466;2023-06-26T04:28:42;18.90;;;9.93;;
66179;SDS011;52986;44.028;20.466;2023-06-26T04:31:07;18.40;;;10.13;;
66179;SDS011;52986;44.028;20.466;2023-06-26T04:33:34;19.77;;;9.80;;
66179;SDS011;52986;44.028;20.466;2023-06-26T04:36:01;17.85;;;10.38;;
66179;SDS011;52986;44.028;20.466;2023-06-26T04:38:28;19.92;;;10.60;;
66179;SDS011;52986;44.028;20.466;2023-06-26T04:40:53;17.40;;;9.68;;
66179;SDS011;52986;44.028;20.466;2023-06-26T04:43:19;18.02;;;9.52;;
66179;SDS011;52986;44.028;20.466;2023-06-26T04:45:44;18.17;;;9.50;;
66179;SDS011;52986;44.028;20.466;2023-06-26T04:48:10;18.10;;;8.85;;
66179;SDS011;52986;44.028;20.466;2023-06-26T04:50:35;15.55;;;8.50;;
66179;SDS011;52986;44.028;20.466;2023-06-26T04:53:00;17.73;;;8.80;;
66179;SDS011;52986;44.028;20.466;2023-06-26T04:55:26;16.20;;;9.15;;
66179;SDS011;52986;44.028;20.466;2023-06-26T04:57:52;16.35;;;8.48;;
66179;SDS011;52986;44.028;20.466;2023-06-26T05:00:17;16.92;;;8.90;;
66179;SDS011;52986;44.028;20.466;2023-06-26T05:02:43;17.10;;;8.95;;
66179;SDS011;52986;44.028;20.466;2023-06-26T05:05:08;16.70;;;8.80;;
66179;SDS011;52986;44.028;20.466;2023-06-26T05:07:34;17.02;;;8.88;;
66179;SDS011;52986;44.028;20.466;2023-06-26T05:09:59;16.48;;;9.23;;
66179;SDS011;52986;44.028;20.466;2023-06-26T05:12:24;18.73;;;10.77;;
66179;SDS011;52986;44.028;20.466;2023-06-26T05:14:50;18.42;;;9.70;;
66179;SDS011;52986;44.028;20.466;2023-06-26T05:17:15;17.90;;;9.30;;
66179;SDS011;52986;44.028;20.466;2023-06-26T05:19:41;19.55;;;8.57;;
66179;SDS011;52986;44.028;20.466;2023-06-26T05:22:06;15.00;;;8.07;;
66179;SDS011;52986;44.028;20.466;2023-06-26T05:24:35;17.75;;;8.57;;
66179;SDS011;52986;44.028;20.466;2023-06-26T05:27:03;16.38;;;8.60;;
66179;SDS011;52986;44.028;20.466;2023-06-26T05:29:30;16.88;;;8.65;;
66179;SDS011;52986;44.028;20.466;2023-06-26T05:31:56;16.70;;;8.70;;
66179;SDS011;52986;44.028;20.466;2023-06-26T05:34:25;18.50;;;9.68;;
66179;SDS011;52986;44.028;20.466;2023-06-26T05:36:54;17.83;;;8.93;;
66179;SDS011;52986;44.028;20.466;2023-06-26T05:39:22;17.13;;;9.35;;
66179;SDS011;52986;44.028;20.466;2023-06-26T05:41:48;17.58;;;8.63;;
66179;SDS011;52986;44.028;20.466;2023-06-26T05:44:13;18.98;;;9.23;;
66179;SDS011;52986;44.028;20.466;2023-06-26T05:46:39;20.58;;;10.55;;
66179;SDS011;52986;44.028;20.466;2023-06-26T05:49:04;18.58;;;10.20;;
66179;SDS011;52986;44.028;20.466;2023-06-26T05:51:30;21.13;;;10.85;;
66179;SDS011;52986;44.028;20.466;2023-06-26T05:53:55;18.63;;;9.93;;
66179;SDS011;52986;44.028;20.466;2023-06-26T05:56:21;18.60;;;10.85;;
66179;SDS011;52986;44.028;20.466;2023-06-26T05:58:47;19.25;;;10.55;;
66179;SDS011;52986;44.028;20.466;2023-06-26T06:01:13;20.13;;;10.75;;
66179;SDS011;52986;44.028;20.466;2023-06-26T06:03:39;22.80;;;11.40;;
66179;SDS011;52986;44.028;20.466;2023-06-26T06:06:05;20.33;;;10.65;;
66179;SDS011;52986;44.028;20.466;2023-06-26T06:08:31;19.70;;;10.70;;
66179;SDS011;52986;44.028;20.466;2023-06-26T06:10:56;19.27;;;11.27;;
66179;SDS011;52986;44.028;20.466;2023-06-26T06:13:22;19.30;;;10.85;;
66179;SDS011;52986;44.028;20.466;2023-06-26T06:15:47;20.65;;;11.05;;
66179;SDS011;52986;44.028;20.466;2023-06-26T06:18:12;21.45;;;11.68;;
66179;SDS011;52986;44.028;20.466;2023-06-26T06:20:38;20.52;;;12.25;;
66179;SDS011;52986;44.028;20.466;2023-06-26T06:23:03;22.10;;;13.05;;
66179;SDS011;52986;44.028;20.466;2023-06-26T06:25:29;21.77;;;12.07;;
66179;SDS011;52986;44.028;20.466;2023-06-26T06:27:54;23.52;;;12.60;;
66179;SDS011;52986;44.028;20.466;2023-06-26T06:30:19;22.10;;;13.05;;
66179;SDS011;52986;44.028;20.466;2023-06-26T06:32:45;21.60;;;12.90;;
66179;SDS011;52986;44.028;20.466;2023-06-26T06:35:15;21.77;;;13.48;;
66179;SDS011;52986;44.028;20.466;2023-06-26T06:37:41;21.15;;;13.13;;
66179;SDS011;52986;44.028;20.466;2023-06-26T06:40:08;22.83;;;12.93;;
66179;SDS011;52986;44.028;20.466;2023-06-26T06:42:35;21.33;;;13.00;;
66179;SDS011;52986;44.028;20.466;2023-06-26T06:45:04;20.92;;;12.57;;
66179;SDS011;52986;44.028;20.466;2023-06-26T06:47:31;25.27;;;13.20;;
66179;SDS011;52986;44.028;20.466;2023-06-26T06:49:57;20.70;;;12.65;;
66179;SDS011;52986;44.028;20.466;2023-06-26T06:52:22;20.95;;;12.50;;
66179;SDS011;52986;44.028;20.466;2023-06-26T06:54:55;19.83;;;11.80;;
66179;SDS011;52986;44.028;20.466;2023-06-26T06:57:24;18.42;;;11.55;;
66179;SDS011;52986;44.028;20.466;2023-06-26T06:59:49;19.20;;;12.30;;
66179;SDS011;52986;44.028;20.466;2023-06-26T07:02:18;19.83;;;11.65;;
66179;SDS011;52986;44.028;20.466;2023-06-26T07:04:44;18.63;;;11.68;;
66179;SDS011;52986;44.028;20.466;2023-06-26T07:07:09;19.98;;;12.00;;
66179;SDS011;52986;44.028;20.466;2023-06-26T07:09:35;19.00;;;11.85;;
66179;SDS011;52986;44.028;20.466;2023-06-26T07:12:01;20.30;;;11.32;;
66179;SDS011;52986;44.028;20.466;2023-06-26T07:14:27;19.08;;;11.85;;
66179;SDS011;52986;44.028;20.466;2023-06-26T07:16:53;17.58;;;10.45;;
66179;SDS011;52986;44.028;20.466;2023-06-26T07:19:18;16.67;;;10.80;;
66179;SDS011;52986;44.028;20.466;2023-06-26T07:21:44;16.15;;;10.50;;
66179;SDS011;52986;44.028;20.466;2023-06-26T07:24:11;16.90;;;10.55;;
66179;SDS011;52986;44.028;20.466;2023-06-26T07:26:36;15.55;;;9.80;;
66179;SDS011;52986;44.028;20.466;2023-06-26T07:29:02;16.13;;;9.93;;
66179;SDS011;52986;44.028;20.466;2023-06-26T07:31:27;14.10;;;8.93;;
66179;SDS011;52986;44.028;20.466;2023-06-26T07:33:53;13.52;;;8.80;;
66179;SDS011;52986;44.028;20.466;2023-06-26T07:36:18;14.13;;;8.93;;
66179;SDS011;52986;44.028;20.466;2023-06-26T07:38:44;15.50;;;9.80;;
66179;SDS011;52986;44.028;20.466;2023-06-26T07:41:09;13.68;;;8.48;;
66179;SDS011;52986;44.028;20.466;2023-06-26T07:43:34;13.63;;;8.60;;
66179;SDS011;52986;44.028;20.466;2023-06-26T07:46:00;14.80;;;8.30;;
66179;SDS011;52986;44.028;20.466;2023-06-26T07:48:25;13.63;;;7.55;;
66179;SDS011;52986;44.028;20.466;2023-06-26T07:50:51;12.82;;;6.90;;
66179;SDS011;52986;44.028;20.466;2023-06-26T07:53:16;15.48;;;7.13;;
66179;SDS011;52986;44.028;20.466;2023-06-26T07:55:42;13.23;;;6.60;;
66179;SDS011;52986;44.028;20.466;2023-06-26T07:58:08;11.30;;;6.80;;
66179;SDS011;52986;44.028;20.466;2023-06-26T08:00:33;13.77;;;6.40;;
66179;SDS011;52986;44.028;20.466;2023-06-26T08:02:59;12.90;;;6.70;;
66179;SDS011;52986;44.028;20.466;2023-06-26T08:05:24;19.67;;;6.80;;
66179;SDS011;52986;44.028;20.466;2023-06-26T08:07:49;12.25;;;6.60;;
66179;SDS011;52986;44.028;20.466;2023-06-26T08:10:15;11.88;;;6.70;;
66179;SDS011;52986;44.028;20.466;2023-06-26T08:12:40;12.13;;;6.32;;
66179;SDS011;52986;44.028;20.466;2023-06-26T08:15:08;10.85;;;6.25;;
66179;SDS011;52986;44.028;20.466;2023-06-26T08:17:34;11.27;;;6.35;;
66179;SDS011;52986;44.028;20.466;2023-06-26T08:20:01;9.73;;;6.15;;
66179;SDS011;52986;44.028;20.466;2023-06-26T08:22:27;13.90;;;6.43;;
66179;SDS011;52986;44.028;20.466;2023-06-26T08:24:52;11.40;;;6.20;;
66179;SDS011;52986;44.028;20.466;2023-06-26T08:27:17;10.38;;;5.57;;
66179;SDS011;52986;44.028;20.466;2023-06-26T08:29:43;9.60;;;5.50;;
66179;SDS011;52986;44.028;20.466;2023-06-26T08:32:08;10.30;;;5.80;;
66179;SDS011;52986;44.028;20.466;2023-06-26T08:34:33;12.55;;;6.20;;
66179;SDS011;52986;44.028;20.466;2023-06-26T08:36:59;10.73;;;5.88;;
66179;SDS011;52986;44.028;20.466;2023-06-26T08:39:24;10.38;;;5.85;;
66179;SDS011;52986;44.028;20.466;2023-06-26T08:41:50;16.67;;;6.15;;
66179;SDS011;52986;44.028;20.466;2023-06-26T08:44:16;10.95;;;5.50;;
66179;SDS011;52986;44.028;20.466;2023-06-26T08:46:41;11.55;;;5.63;;
66179;SDS011;52986;44.028;20.466;2023-06-26T08:49:13;9.77;;;5.28;;
66179;SDS011;52986;44.028;20.466;2023-06-26T08:51:44;10.07;;;5.43;;
66179;SDS011;52986;44.028;20.466;2023-06-26T08:54:14;9.80;;;5.03;;
66179;SDS011;52986;44.028;20.466;2023-06-26T08:56:42;12.52;;;5.53;;
66179;SDS011;52986;44.028;20.466;2023-06-26T08:59:11;10.30;;;4.97;;
66179;SDS011;52986;44.028;20.466;2023-06-26T09:01:39;10.02;;;5.50;;
66179;SDS011;52986;44.028;20.466;2023-06-26T09:04:05;11.25;;;5.03;;
66179;SDS011;52986;44.028;20.466;2023-06-26T09:06:31;12.88;;;4.95;;
66179;SDS011;52986;44.028;20.466;2023-06-26T09:08:57;12.10;;;4.78;;
66179;SDS011;52986;44.028;20.466;2023-06-26T09:11:22;10.38;;;4.93;;
66179;SDS011;52986;44.028;20.466;2023-06-26T09:13:48;10.35;;;5.20;;
66179;SDS011;52986;44.028;20.466;2023-06-26T09:16:13;9.98;;;5.38;;
66179;SDS011;52986;44.028;20.466;2023-06-26T09:18:42;9.98;;;5.20;;
66179;SDS011;52986;44.028;20.466;2023-06-26T09:21:10;11.10;;;5.53;;
66179;SDS011;52986;44.028;20.466;2023-06-26T09:23:36;10.82;;;5.53;;
66179;SDS011;52986;44.028;20.466;2023-06-26T09:26:04;9.73;;;5.40;;
66179;SDS011;52986;44.028;20.466;2023-06-26T09:28:31;12.50;;;5.53;;
66179;SDS011;52986;44.028;20.466;2023-06-26T09:31:04;11.35;;;5.90;;
66179;SDS011;52986;44.028;20.466;2023-06-26T09:33:34;11.38;;;6.13;;
66179;SDS011;52986;44.028;20.466;2023-06-26T09:36:01;10.88;;;6.28;;
66179;SDS011;52986;44.028;20.466;2023-06-26T09:38:30;11.93;;;6.28;;
66179;SDS011;52986;44.028;20.466;2023-06-26T09:40:55;16.00;;;6.80;;
66179;SDS011;52986;44.028;20.466;2023-06-26T09:43:21;12.48;;;6.50;;
66179;SDS011;52986;44.028;20.466;2023-06-26T09:45:46;10.20;;;6.20;;
66179;SDS011;52986;44.028;20.466;2023-06-26T09:48:11;11.00;;;5.90;;
66179;SDS011;52986;44.028;20.466;2023-06-26T09:50:41;15.77;;;5.93;;
66179;SDS011;52986;44.028;20.466;2023-06-26T09:53:10;12.25;;;6.40;;
66179;SDS011;52986;44.028;20.466;2023-06-26T09:55:38;25.95;;;6.32;;
66179;SDS011;52986;44.028;20.466;2023-06-26T09:58:05;12.27;;;5.78;;
66179;SDS011;52986;44.028;20.466;2023-06-26T10:00:31;15.93;;;5.93;;
66179;SDS011;52986;44.028;20.466;2023-06-26T10:02:57;12.98;;;5.80;;
66179;SDS011;52986;44.028;20.466;2023-06-26T10:05:26;11.82;;;5.60;;
66179;SDS011;52986;44.028;20.466;2023-06-26T10:07:52;10.82;;;5.80;;
66179;SDS011;52986;44.028;20.466;2023-06-26T10:10:18;10.25;;;5.60;;
66179;SDS011;52986;44.028;20.466;2023-06-26T10:12:44;11.20;;;5.47;;
66179;SDS011;52986;44.028;20.466;2023-06-26T10:15:14;10.40;;;5.60;;
66179;SDS011;52986;44.028;20.466;2023-06-26T10:17:42;11.82;;;5.53;;
66179;SDS011;52986;44.028;20.466;2023-06-26T10:20:09;12.73;;;5.78;;
66179;SDS011;52986;44.028;20.466;2023-06-26T10:22:36;9.77;;;5.53;;
66179;SDS011;52986;44.028;20.466;2023-06-26T10:25:05;10.95;;;5.75;;
66179;SDS011;52986;44.028;20.466;2023-06-26T10:27:34;11.65;;;6.00;;
66179;SDS011;52986;44.028;20.466;2023-06-26T10:30:03;13.25;;;5.95;;
66179;SDS011;52986;44.028;20.466;2023-06-26T10:32:31;12.75;;;6.07;;
66179;SDS011;52986;44.028;20.466;2023-06-26T10:34:58;14.15;;;5.93;;
66179;SDS011;52986;44.028;20.466;2023-06-26T10:37:43;11.30;;;5.65;;
66179;SDS011;52986;44.028;20.466;2023-06-26T10:40:13;11.20;;;6.15;;
66179;SDS011;52986;44.028;20.466;2023-06-26T10:42:39;10.38;;;6.10;;
66179;SDS011;52986;44.028;20.466;2023-06-26T10:47:46;13.25;;;6.07;;
66179;SDS011;52986;44.028;20.466;2023-06-26T10:50:28;10.18;;;5.75;;
66179;SDS011;52986;44.028;20.466;2023-06-26T10:55:36;10.77;;;5.40;;
66179;SDS011;52986;44.028;20.466;2023-06-26T10:58:02;11.50;;;5.78;;
66179;SDS011;52986;44.028;20.466;2023-06-26T11:00:27;11.15;;;6.88;;
66179;SDS011;52986;44.028;20.466;2023-06-26T11:02:53;10.07;;;5.80;;
66179;SDS011;52986;44.028;20.466;2023-06-26T11:05:26;10.87;;;6.03;;
66179;SDS011;52986;44.028;20.466;2023-06-26T11:08:09;10.32;;;5.82;;
66179;SDS011;52986;44.028;20.466;2023-06-26T11:10:53;10.38;;;5.40;;
66179;SDS011;52986;44.028;20.466;2023-06-26T11:13:20;13.80;;;5.72;;
66179;SDS011;52986;44.028;20.466;2023-06-26T11:15:46;10.20;;;5.60;;
66179;SDS011;52986;44.028;20.466;2023-06-26T11:18:13;9.45;;;5.15;;
66179;SDS011;52986;44.028;20.466;2023-06-26T11:20:39;10.13;;;5.60;;
66179;SDS011;52986;44.028;20.466;2023-06-26T11:23:05;20.27;;;5.30;;
66179;SDS011;52986;44.028;20.466;2023-06-26T11:25:38;10.25;;;5.07;;
66179;SDS011;52986;44.028;20.466;2023-06-26T11:28:04;9.77;;;4.97;;
66179;SDS011;52986;44.028;20.466;2023-06-26T11:30:30;9.18;;;4.70;;
66179;SDS011;52986;44.028;20.466;2023-06-26T11:33:06;9.95;;;5.43;;
66179;SDS011;52986;44.028;20.466;2023-06-26T11:35:33;11.57;;;5.82;;
66179;SDS011;52986;44.028;20.466;2023-06-26T11:37:59;10.40;;;5.60;;
66179;SDS011;52986;44.028;20.466;2023-06-26T11:40:29;13.48;;;6.45;;
66179;SDS011;52986;44.028;20.466;2023-06-26T11:42:59;10.55;;;5.30;;
66179;SDS011;52986;44.028;20.466;2023-06-26T11:45:29;11.40;;;5.85;;
66179;SDS011;52986;44.028;20.466;2023-06-26T11:47:56;19.50;;;5.75;;
66179;SDS011;52986;44.028;20.466;2023-06-26T11:50:22;11.15;;;5.50;;
66179;SDS011;52986;44.028;20.466;2023-06-26T11:55:21;13.20;;;6.00;;
66179;SDS011;52986;44.028;20.466;2023-06-26T11:57:50;11.32;;;6.25;;
66179;SDS011;52986;44.028;20.466;2023-06-26T12:00:18;12.63;;;6.80;;
66179;SDS011;52986;44.028;20.466;2023-06-26T12:02:44;11.55;;;6.15;;
66179;SDS011;52986;44.028;20.466;2023-06-26T12:05:11;11.00;;;6.07;;
66179;SDS011;52986;44.028;20.466;2023-06-26T12:07:38;11.48;;;6.57;;
66179;SDS011;52986;44.028;20.466;2023-06-26T12:10:04;10.35;;;6.00;;
66179;SDS011;52986;44.028;20.466;2023-06-26T12:12:31;11.57;;;6.50;;
66179;SDS011;52986;44.028;20.466;2023-06-26T12:14:58;12.35;;;6.72;;
66179;SDS011;52986;44.028;20.466;2023-06-26T12:17:25;12.75;;;6.93;;
66179;SDS011;52986;44.028;20.466;2023-06-26T12:19:50;13.27;;;6.55;;
66179;SDS011;52986;44.028;20.466;2023-06-26T12:22:17;18.58;;;6.32;;
66179;SDS011;52986;44.028;20.466;2023-06-26T12:24:43;12.48;;;6.20;;
66179;SDS011;52986;44.028;20.466;2023-06-26T12:27:11;13.40;;;6.20;;
66179;SDS011;52986;44.028;20.466;2023-06-26T12:29:38;11.82;;;6.13;;
66179;SDS011;52986;44.028;20.466;2023-06-26T12:32:09;10.40;;;5.93;;
66179;SDS011;52986;44.028;20.466;2023-06-26T12:34:36;11.80;;;6.63;;
66179;SDS011;52986;44.028;20.466;2023-06-26T12:42:24;12.32;;;7.53;;
66179;SDS011;52986;44.028;20.466;2023-06-26T12:44:51;11.45;;;6.82;;
66179;SDS011;52986;44.028;20.466;2023-06-26T12:47:18;13.90;;;7.00;;
66179;SDS011;52986;44.028;20.466;2023-06-26T12:49:50;11.55;;;7.05;;
66179;SDS011;52986;44.028;20.466;2023-06-26T12:52:16;12.93;;;7.15;;
66179;SDS011;52986;44.028;20.466;2023-06-26T12:54:45;11.82;;;6.93;;
66179;SDS011;52986;44.028;20.466;2023-06-26T12:57:12;12.80;;;7.22;;
66179;SDS011;52986;44.028;20.466;2023-06-26T12:59:39;11.73;;;6.50;;
66179;SDS011;52986;44.028;20.466;2023-06-26T13:02:05;10.63;;;6.10;;
66179;SDS011;52986;44.028;20.466;2023-06-26T13:04:30;11.48;;;6.85;;
66179;SDS011;52986;44.028;20.466;2023-06-26T13:06:56;12.35;;;6.50;;
66179;SDS011;52986;44.028;20.466;2023-06-26T13:09:22;11.63;;;6.22;;
66179;SDS011;52986;44.028;20.466;2023-06-26T13:11:50;11.65;;;6.20;;
66179;SDS011;52986;44.028;20.466;2023-06-26T13:14:16;10.90;;;6.10;;
66179;SDS011;52986;44.028;20.466;2023-06-26T13:16:41;12.65;;;6.20;;
66179;SDS011;52986;44.028;20.466;2023-06-26T13:19:06;13.75;;;7.00;;
66179;SDS011;52986;44.028;20.466;2023-06-26T13:21:33;12.02;;;6.10;;
66179;SDS011;52986;44.028;20.466;2023-06-26T13:23:59;11.70;;;6.60;;
66179;SDS011;52986;44.028;20.466;2023-06-26T13:26:25;12.88;;;6.28;;
66179;SDS011;52986;44.028;20.466;2023-06-26T13:28:51;11.55;;;6.43;;
66179;SDS011;52986;44.028;20.466;2023-06-26T13:31:17;13.90;;;6.75;;
66179;SDS011;52986;44.028;20.466;2023-06-26T13:33:42;12.07;;;7.13;;
66179;SDS011;52986;44.028;20.466;2023-06-26T13:36:09;16.67;;;7.28;;
66179;SDS011;52986;44.028;20.466;2023-06-26T13:38:35;12.18;;;7.10;;
66179;SDS011;52986;44.028;20.466;2023-06-26T13:41:00;12.45;;;7.28;;
66179;SDS011;52986;44.028;20.466;2023-06-26T13:43:26;11.32;;;6.97;;
66179;SDS011;52986;44.028;20.466;2023-06-26T13:45:53;12.20;;;6.70;;
66179;SDS011;52986;44.028;20.466;2023-06-26T13:48:19;11.10;;;6.68;;
66179;SDS011;52986;44.028;20.466;2023-06-26T13:50:45;12.85;;;6.53;;
66179;SDS011;52986;44.028;20.466;2023-06-26T13:53:11;11.35;;;6.28;;
66179;SDS011;52986;44.028;20.466;2023-06-26T13:55:37;11.90;;;7.03;;
66179;SDS011;52986;44.028;20.466;2023-06-26T13:58:03;11.52;;;7.00;;
66179;SDS011;52986;44.028;20.466;2023-06-26T14:00:30;10.43;;;6.40;;
66179;SDS011;52986;44.028;20.466;2023-06-26T14:02:56;10.57;;;6.95;;
66179;SDS011;52986;44.028;20.466;2023-06-26T14:05:22;11.27;;;6.38;;
66179;SDS011;52986;44.028;20.466;2023-06-26T14:07:47;11.70;;;6.38;;
66179;SDS011;52986;44.028;20.466;2023-06-26T14:10:13;11.70;;;6.13;;
66179;SDS011;52986;44.028;20.466;2023-06-26T14:12:39;10.52;;;5.85;;
66179;SDS011;52986;44.028;20.466;2023-06-26T14:15:05;12.65;;;5.97;;
66179;SDS011;52986;44.028;20.466;2023-06-26T14:17:31;10.02;;;5.85;;
66179;SDS011;52986;44.028;20.466;2023-06-26T14:19:56;13.90;;;6.13;;
66179;SDS011;52986;44.028;20.466;2023-06-26T14:22:22;12.70;;;6.07;;
66179;SDS011;52986;44.028;20.466;2023-06-26T14:24:48;10.75;;;5.90;;
66179;SDS011;52986;44.028;20.466;2023-06-26T14:27:14;10.07;;;5.97;;
66179;SDS011;52986;44.028;20.466;2023-06-26T14:29:39;12.25;;;6.90;;
66179;SDS011;52986;44.028;20.466;2023-06-26T14:32:05;13.52;;;6.30;;
66179;SDS011;52986;44.028;20.466;2023-06-26T14:34:31;11.10;;;6.47;;
66179;SDS011;52986;44.028;20.466;2023-06-26T14:36:57;13.95;;;6.90;;
66179;SDS011;52986;44.028;20.466;2023-06-26T14:39:22;12.55;;;6.47;;